Flight Track Log - Related Links

Times and Time Zones

All times are in EDT time to prevent confusion due to time zone crossing. See the N240ER flight status page for this flight to view local times or setup timezone preferences in your user account.

Time Position Orientation Groundspeed Altitude Reporting Facility
EDT Latitude Longitude Course Direction KTS MPH feet Rate Location/Type
Wed 11:22:04 AM 41.3081 -95.9014 321° Northwest 94 108 1,400  Level Minneapolis Center
Wed 11:22:22 AM 41.3150 -95.9089 321° Northwest 101 116 1,800 1,083 Climbing Minneapolis Center
Wed 11:23:16 AM 41.3375 -95.9342 320° Northwest 125 144 2,700 1,304 Climbing Minneapolis Center
Wed 11:24:17 AM 41.3492 -95.9828 288° West 158 182 4,300 1,448 Climbing Minneapolis Center
Wed 11:25:12 AM 41.3228 -96.0175 225° Southwest 161 185 5,500 1,500 Climbing Minneapolis Center
Wed 11:26:13 AM 41.2900 -96.0656 228° Southwest 170 196 7,200 1,475 Climbing Minneapolis Center
Wed 11:27:14 AM 41.2686 -96.1019 232° Southwest 149 171 8,500 1,220 Climbing Minneapolis Center
Wed 11:28:16 AM 41.2433 -96.1222 211° Southwest 125 144 9,700 1,067 Climbing Minneapolis Center
Wed 11:29:29 AM 41.2122 -96.1319 193° South 115 132 10,900 1,156 Climbing Minneapolis Center
Wed 11:30:31 AM 41.1744 -96.1453 195° South 117 135 12,300 1,161 Climbing Minneapolis Center
Wed 11:31:33 AM 41.1444 -96.1550 194° South 113 130 13,300 1,024 Climbing Minneapolis Center
Wed 11:32:34 AM 41.1139 -96.1653 194° South 113 130 14,400 1,220 Climbing Minneapolis Center
Wed 11:33:36 AM 41.0744 -96.1783 194° South 119 137 15,800 1,220 Climbing Minneapolis Center
Wed 11:34:37 AM 41.0414 -96.1894 194° South 121 139 16,900 976 Climbing Minneapolis Center
Wed 11:35:39 AM 41.0069 -96.2011 194° South 125 144 17,800 927 Climbing Minneapolis Center
Wed 11:36:40 AM 40.9711 -96.2122 193° South 130 150 18,800 976 Climbing Minneapolis Center
Wed 11:37:42 AM 40.9344 -96.2244 194° South 134 154 19,800 1,024 Climbing Minneapolis Center
Wed 11:38:43 AM 40.8958 -96.2372 194° South 140 161 20,900 1,024 Climbing Minneapolis Center
Wed 11:39:45 AM 40.8561 -96.2492 193° South 144 166 21,900 537 Climbing Minneapolis Center
Wed 11:40:46 AM 40.8106 -96.2650 195° South 159 183 22,000 49 Climbing Minneapolis Center
Wed 11:41:48 AM 40.7450 -96.2875 195° South 192 221 22,000  Level Minneapolis Center
Wed 11:42:49 AM 40.6875 -96.3053 193° South 207 238 22,000  Level Minneapolis Center
Wed 11:43:51 AM 40.6303 -96.3236 194° South 211 243 22,000  Level Minneapolis Center
Wed 11:44:52 AM 40.5728 -96.3425 194° South 212 244 22,000 488 Level Minneapolis Center
Wed 11:45:54 AM 40.5175 -96.3608 194° South 208 239 23,000 927 Climbing Minneapolis Center
Wed 11:46:55 AM 40.4711 -96.3750 193° South 183 211 23,900 829 Climbing Minneapolis Center
Wed 11:47:57 AM 40.4219 -96.3914 194° South 180 207 24,700 780 Climbing Minneapolis Center
Wed 11:48:58 AM 40.3733 -96.4067 193° South 181 208 25,500 634 Climbing Minneapolis Center
Wed 11:50:00 AM 40.3214 -96.4222 193° South 186 214 26,000 244 Climbing Minneapolis Center
Wed 11:51:01 AM 40.2519 -96.4453 194° South 207 238 26,000  Level Minneapolis Center
Wed 11:52:02 AM 40.1908 -96.4653 194° South 221 254 26,000  Level Minneapolis Center
Wed 11:53:04 AM 40.1297 -96.4856 194° South 225 259 26,000  Level Minneapolis Center
Wed 11:54:05 AM 40.0692 -96.5053 194° South 225 259 26,000  Level Minneapolis Center
Wed 11:55:07 AM 40.0083 -96.5247 194° South 225 259 26,000  Level Minneapolis Center
Wed 11:56:09 AM 39.9472 -96.5431 193° South 225 259 26,000  Level Minneapolis Center
Wed 11:57:10 AM 39.8881 -96.5619 194° South 221 254 26,000  Level Minneapolis Center
Wed 11:58:12 AM 39.8281 -96.5811 194° South 221 254 26,000  Level Minneapolis Center
Wed 11:59:10 AM 39.7664 -96.5989 192° South 225 259 26,000  Level Kansas City Center
Wed 12:00:12 PM 39.6908 -96.6150 189° South 228 262 26,000  Level Kansas City Center
Wed 12:01:14 PM 39.6286 -96.6306 191° South 227 261 26,000  Level Kansas City Center
Wed 12:02:16 PM 39.5656 -96.6453 190° South 229 264 26,000  Level Kansas City Center
Wed 12:03:18 PM 39.4994 -96.6611 190° South 231 266 26,000  Level Kansas City Center
Wed 12:04:20 PM 39.4381 -96.6753 190° South 232 267 26,000  Level Kansas City Center
Wed 12:05:22 PM 39.3681 -96.6919 190° South 231 266 26,000  Level Kansas City Center
Wed 12:06:24 PM 39.3069 -96.7067 191° South 232 267 26,000 -48 Level Kansas City Center
Wed 12:07:26 PM 39.2361 -96.7239 191° South 232 267 25,900 -484 Descending Kansas City Center
Wed 12:08:28 PM 39.1717 -96.7389 190° South 241 277 25,000 -968 Descending Kansas City Center
Wed 12:09:30 PM 39.0944 -96.7569 190° South 249 287 23,900 -968 Descending Kansas City Center
Wed 12:10:32 PM 39.0336 -96.7706 190° South 239 275 23,000 -919 Descending Kansas City Center
Wed 12:11:34 PM 38.9783 -96.7819 189° South 220 253 22,000 -1,113 Descending Kansas City Center
Wed 12:12:36 PM 38.9297 -96.8078 202° Southwest 198 228 20,700 -1,597 Descending Kansas City Center
Wed 12:13:38 PM 38.8822 -96.8561 218° Southwest 184 212 18,700 -1,645 Descending Kansas City Center
Wed 12:14:40 PM 38.8350 -96.8819 203° Southwest 195 224 17,300 -1,210 Descending Kansas City Center
Wed 12:15:42 PM 38.7772 -96.9000 194° South 206 237 16,200 -1,016 Descending Kansas City Center
Wed 12:16:44 PM 38.7231 -96.9172 194° South 208 239 15,200 -1,113 Descending Kansas City Center
Wed 12:17:46 PM 38.6647 -96.9356 194° South 194 223 13,900 -1,161 Descending Kansas City Center
Wed 12:18:48 PM 38.6139 -96.9514 194° South 182 209 12,800 -1,104 Descending Kansas City Center
Wed 12:19:51 PM 38.5633 -96.9672 194° South 178 205 11,600 -1,104 Descending Kansas City Center
Wed 12:20:53 PM 38.5125 -96.9839 194° South 180 207 10,500 -1,140 Descending Kansas City Center
Wed 12:21:52 PM 38.4658 -96.9967 192° South 177 204 9,300 -1,113 Descending Kansas City Center
Wed 12:22:57 PM 38.4214 -97.0125 196° South 174 200 8,200 -1,096 Descending Kansas City Center
Wed 12:23:47 PM 38.3783 -97.0242 192° South 172 198 7,200 -1,135 Descending Kansas City Center
Wed 12:24:48 PM 38.3356 -97.0392 195° South 160 184 6,100 -1,015 Descending Kansas City Center
Wed 12:26:03 PM 38.2883 -97.0556 195° South 164 189 4,900 -992 Descending Kansas City Center
Wed 12:26:55 PM 38.2378 -97.0708 193° South 172 198 4,000 -435 Descending Kansas City Center
Wed 12:28:07 PM 38.1908 -97.0847 193° South 153 176 4,000  Level Kansas City Center
Wed 12:29:02 PM 38.1461 -97.0989 194° South 168 193 4,000  Level Kansas City Center
Wed 12:30:11 PM 38.0944 -97.1150 194° South 182 209 4,000  Level Kansas City Center
Wed 12:31:04 PM 38.0461 -97.1283 192° South 184 212 4,000 -531 Level Kansas City Center
Wed 12:32:04 PM 37.9931 -97.1447 194° South 184 212 3,000 -496 Descending Kansas City Center
Wed 12:33:05 PM 37.9442 -97.1603 194° South 192 221 3,000  Level Kansas City Center
Wed 12:34:19 PM 37.8864 -97.1867 200° South 186 214 3,000  Level Kansas City Center
Wed 12:35:21 PM 37.8394 -97.2081 200° South 183 211 3,000 -339 Level Kansas City Center
Wed 12:36:23 PM 37.8017 -97.2133 186° South 161 185 2,300 -581 Descending Kansas City Center
Wed 12:37:25 PM 37.7706 -97.2183 187° South 137 158 1,800 -339 Descending Kansas City Center
Wed 12:38:27 PM 37.7372 -97.2231 186° South 127 146 1,600 -194 Descending Kansas City Center
Wed 12:40:00 PM 37.7333 -97.2167 North  Level FlightAware Approximate
Wed 12:47:00 PM 37.7476 -97.2211 North  Level Estimated
Wed 12:48:00 PM 37.7476 -97.2211 North  Level Estimated
Wed 12:49:00 PM 37.7476 -97.2211 North  Level Estimated
Wed 12:50:00 PM 37.7476 -97.2211 North  Level Estimated
Wed 12:51:00 PM 37.7476 -97.2211 North  Level Estimated
Wed 12:52:00 PM 37.7476 -97.2211 North  Level Estimated
Wed 12:53:00 PM 37.7476 -97.2211 North  Level Estimated
Wed 12:54:00 PM 37.7476 -97.2211 North  Level Estimated

Login

Don't have an account? Register now (free) for customized features, flight alerts, and more!